sensor_id;sensor_type;location;lat;lon;timestamp;pressure;altitude;pressure_sealevel;temperature;humidity
20942;BME280;10630;53.734;10.282;2023-02-03T00:02:02;101297.16;;;9.99;84.29
20942;BME280;10630;53.734;10.282;2023-02-03T00:04:28;101289.03;;;10.19;83.86
20942;BME280;10630;53.734;10.282;2023-02-03T00:06:55;101291.66;;;10.47;83.67
20942;BME280;10630;53.734;10.282;2023-02-03T00:09:23;101290.97;;;10.26;84.09
20942;BME280;10630;53.734;10.282;2023-02-03T00:11:49;101283.72;;;10.19;83.30
20942;BME280;10630;53.734;10.282;2023-02-03T00:14:16;101286.81;;;10.42;84.53
20942;BME280;10630;53.734;10.282;2023-02-03T00:16:44;101277.81;;;10.79;81.80
20942;BME280;10630;53.734;10.282;2023-02-03T00:19:10;101265.50;;;10.78;81.34
20942;BME280;10630;53.734;10.282;2023-02-03T00:21:37;101262.00;;;11.04;79.75
20942;BME280;10630;53.734;10.282;2023-02-03T00:24:06;101262.22;;;11.11;80.33
20942;BME280;10630;53.734;10.282;2023-02-03T00:26:33;101248.91;;;10.66;80.47
20942;BME280;10630;53.734;10.282;2023-02-03T00:29:00;101248.28;;;10.72;82.14
20942;BME280;10630;53.734;10.282;2023-02-03T00:31:26;101253.69;;;10.81;82.04
20942;BME280;10630;53.734;10.282;2023-02-03T00:33:54;101252.44;;;11.19;81.26
20942;BME280;10630;53.734;10.282;2023-02-03T00:36:23;101246.81;;;10.96;80.51
20942;BME280;10630;53.734;10.282;2023-02-03T00:38:50;101250.34;;;10.79;83.10
20942;BME280;10630;53.734;10.282;2023-02-03T00:41:18;101247.66;;;10.79;84.15
20942;BME280;10630;53.734;10.282;2023-02-03T00:43:46;101230.31;;;10.30;85.71
20942;BME280;10630;53.734;10.282;2023-02-03T00:46:13;101214.94;;;10.60;87.60
20942;BME280;10630;53.734;10.282;2023-02-03T00:48:41;101215.44;;;10.27;89.02
20942;BME280;10630;53.734;10.282;2023-02-03T00:51:07;101215.00;;;10.32;92.69
20942;BME280;10630;53.734;10.282;2023-02-03T00:53:34;101215.31;;;10.65;91.17
20942;BME280;10630;53.734;10.282;2023-02-03T00:56:00;101209.56;;;11.04;87.48
20942;BME280;10630;53.734;10.282;2023-02-03T00:58:27;101206.09;;;11.12;88.62
20942;BME280;10630;53.734;10.282;2023-02-03T01:00:54;101196.19;;;10.96;87.91
20942;BME280;10630;53.734;10.282;2023-02-03T01:03:22;101187.13;;;11.50;88.14
20942;BME280;10630;53.734;10.282;2023-02-03T01:05:50;101189.16;;;10.60;90.50
20942;BME280;10630;53.734;10.282;2023-02-03T01:08:17;101189.72;;;10.99;95.16
20942;BME280;10630;53.734;10.282;2023-02-03T01:10:45;101190.41;;;11.35;89.86
20942;BME280;10630;53.734;10.282;2023-02-03T01:13:12;101179.72;;;11.86;87.91
20942;BME280;10630;53.734;10.282;2023-02-03T01:15:44;101176.41;;;11.33;89.17
20942;BME280;10630;53.734;10.282;2023-02-03T01:18:12;101178.69;;;11.20;92.51
20942;BME280;10630;53.734;10.282;2023-02-03T01:20:39;101164.63;;;11.09;99.22
20942;BME280;10630;53.734;10.282;2023-02-03T01:23:07;101150.88;;;11.82;93.94
20942;BME280;10630;53.734;10.282;2023-02-03T01:25:34;101139.69;;;11.70;93.74
20942;BME280;10630;53.734;10.282;2023-02-03T01:28:04;101136.81;;;11.55;95.34
20942;BME280;10630;53.734;10.282;2023-02-03T01:30:31;101131.66;;;11.53;95.75
20942;BME280;10630;53.734;10.282;2023-02-03T01:32:58;101115.41;;;12.14;95.27
20942;BME280;10630;53.734;10.282;2023-02-03T01:35:25;101104.41;;;12.17;92.28
20942;BME280;10630;53.734;10.282;2023-02-03T01:37:51;101098.78;;;12.69;89.98
20942;BME280;10630;53.734;10.282;2023-02-03T01:40:19;101089.03;;;12.19;90.61
20942;BME280;10630;53.734;10.282;2023-02-03T01:42:46;101077.50;;;11.61;94.85
20942;BME280;10630;53.734;10.282;2023-02-03T01:45:13;101076.19;;;11.74;97.07
20942;BME280;10630;53.734;10.282;2023-02-03T01:50:13;101071.47;;;11.34;100.00
20942;BME280;10630;53.734;10.282;2023-02-03T01:52:41;101066.22;;;11.76;100.00
20942;BME280;10630;53.734;10.282;2023-02-03T01:55:11;101075.06;;;12.26;98.65
20942;BME280;10630;53.734;10.282;2023-02-03T01:57:42;101075.22;;;11.75;99.65
20942;BME280;10630;53.734;10.282;2023-02-03T02:00:11;101081.06;;;11.86;97.99
20942;BME280;10630;53.734;10.282;2023-02-03T02:02:40;101075.53;;;11.80;98.15
20942;BME280;10630;53.734;10.282;2023-02-03T02:07:44;101077.53;;;12.35;96.97
20942;BME280;10630;53.734;10.282;2023-02-03T02:10:11;101085.22;;;12.22;98.87
20942;BME280;10630;53.734;10.282;2023-02-03T02:12:39;101075.56;;;12.21;98.73
20942;BME280;10630;53.734;10.282;2023-02-03T02:15:06;101071.81;;;12.47;95.62
20942;BME280;10630;53.734;10.282;2023-02-03T02:23:00;101073.81;;;11.29;100.00
20942;BME280;10630;53.734;10.282;2023-02-03T02:28:37;101061.47;;;11.28;100.00
20942;BME280;10630;53.734;10.282;2023-02-03T02:39:12;101037.88;;;11.91;96.05
20942;BME280;10630;53.734;10.282;2023-02-03T02:44:29;101045.22;;;11.97;96.56
20942;BME280;10630;53.734;10.282;2023-02-03T02:47:04;101037.97;;;11.23;100.00
20942;BME280;10630;53.734;10.282;2023-02-03T02:52:03;101042.00;;;11.36;98.84
20942;BME280;10630;53.734;10.282;2023-02-03T02:54:31;101034.72;;;12.04;100.00
20942;BME280;10630;53.734;10.282;2023-02-03T02:56:59;101033.38;;;11.83;96.63
20942;BME280;10630;53.734;10.282;2023-02-03T02:59:27;101037.03;;;12.15;95.57
20942;BME280;10630;53.734;10.282;2023-02-03T03:01:54;101026.66;;;12.77;93.75
20942;BME280;10630;53.734;10.282;2023-02-03T03:04:23;101025.84;;;11.95;96.83
20942;BME280;10630;53.734;10.282;2023-02-03T03:06:52;101016.69;;;11.73;100.00
20942;BME280;10630;53.734;10.282;2023-02-03T03:09:24;101014.19;;;11.55;100.00
20942;BME280;10630;53.734;10.282;2023-02-03T03:11:55;101017.56;;;12.07;99.04
20942;BME280;10630;53.734;10.282;2023-02-03T03:14:25;101007.88;;;11.72;97.61
20942;BME280;10630;53.734;10.282;2023-02-03T03:16:55;100995.03;;;11.93;96.11
20942;BME280;10630;53.734;10.282;2023-02-03T03:19:26;100990.88;;;12.07;99.32
20942;BME280;10630;53.734;10.282;2023-02-03T03:21:56;100983.84;;;12.14;97.08
20942;BME280;10630;53.734;10.282;2023-02-03T03:24:25;100985.53;;;12.07;96.16
20942;BME280;10630;53.734;10.282;2023-02-03T03:26:57;100970.16;;;12.17;97.25
20942;BME280;10630;53.734;10.282;2023-02-03T03:29:33;100973.88;;;11.83;96.60
20942;BME280;10630;53.734;10.282;2023-02-03T03:32:02;100980.22;;;11.74;99.35
20942;BME280;10630;53.734;10.282;2023-02-03T03:34:29;100974.19;;;12.13;93.97
20942;BME280;10630;53.734;10.282;2023-02-03T03:37:01;100958.38;;;11.86;97.97
20942;BME280;10630;53.734;10.282;2023-02-03T03:44:31;100949.50;;;11.94;93.75
20942;BME280;10630;53.734;10.282;2023-02-03T03:47:04;100953.22;;;11.68;98.13
20942;BME280;10630;53.734;10.282;2023-02-03T03:49:32;100949.88;;;11.66;97.94
20942;BME280;10630;53.734;10.282;2023-02-03T03:52:01;100948.47;;;12.20;97.70
20942;BME280;10630;53.734;10.282;2023-02-03T03:54:29;100949.19;;;11.81;97.71
20942;BME280;10630;53.734;10.282;2023-02-03T03:56:59;100950.50;;;12.01;96.12
20942;BME280;10630;53.734;10.282;2023-02-03T03:59:29;100950.56;;;11.68;99.83
20942;BME280;10630;53.734;10.282;2023-02-03T04:01:57;100941.53;;;11.03;100.00
20942;BME280;10630;53.734;10.282;2023-02-03T04:04:30;100947.91;;;11.52;100.00
20942;BME280;10630;53.734;10.282;2023-02-03T04:06:58;100934.91;;;11.57;100.00
20942;BME280;10630;53.734;10.282;2023-02-03T04:09:25;100930.84;;;11.86;100.00
20942;BME280;10630;53.734;10.282;2023-02-03T04:11:54;100923.72;;;11.78;100.00
20942;BME280;10630;53.734;10.282;2023-02-03T04:14:36;100926.59;;;11.44;100.00
20942;BME280;10630;53.734;10.282;2023-02-03T04:17:09;100923.25;;;11.58;100.00
20942;BME280;10630;53.734;10.282;2023-02-03T04:19:35;100922.94;;;11.45;100.00
20942;BME280;10630;53.734;10.282;2023-02-03T04:22:02;100919.22;;;10.96;100.00
20942;BME280;10630;53.734;10.282;2023-02-03T04:24:33;100905.56;;;11.74;100.00
20942;BME280;10630;53.734;10.282;2023-02-03T04:27:05;100908.53;;;11.79;100.00
20942;BME280;10630;53.734;10.282;2023-02-03T04:29:43;100889.28;;;11.11;100.00
20942;BME280;10630;53.734;10.282;2023-02-03T04:32:16;100889.50;;;12.07;100.00
20942;BME280;10630;53.734;10.282;2023-02-03T04:34:52;100877.13;;;11.00;100.00
20942;BME280;10630;53.734;10.282;2023-02-03T04:37:19;100882.94;;;11.45;100.00
20942;BME280;10630;53.734;10.282;2023-02-03T04:39:46;100881.13;;;12.10;100.00
20942;BME280;10630;53.734;10.282;2023-02-03T04:42:12;100883.41;;;12.29;99.90
20942;BME280;10630;53.734;10.282;2023-02-03T04:44:39;100872.91;;;11.63;100.00
20942;BME280;10630;53.734;10.282;2023-02-03T04:47:06;100886.88;;;11.74;100.00
20942;BME280;10630;53.734;10.282;2023-02-03T04:49:33;100881.91;;;11.62;100.00
20942;BME280;10630;53.734;10.282;2023-02-03T04:51:59;100880.78;;;11.15;100.00
20942;BME280;10630;53.734;10.282;2023-02-03T04:54:27;100866.53;;;11.81;100.00
20942;BME280;10630;53.734;10.282;2023-02-03T04:56:53;100874.81;;;12.02;100.00
20942;BME280;10630;53.734;10.282;2023-02-03T04:59:20;100868.94;;;11.51;100.00
20942;BME280;10630;53.734;10.282;2023-02-03T05:01:48;100864.56;;;11.66;100.00
20942;BME280;10630;53.734;10.282;2023-02-03T05:04:15;100859.41;;;12.21;100.00
20942;BME280;10630;53.734;10.282;2023-02-03T05:06:42;100851.97;;;11.44;100.00
20942;BME280;10630;53.734;10.282;2023-02-03T05:09:09;100854.81;;;11.34;100.00
20942;BME280;10630;53.734;10.282;2023-02-03T05:11:36;100838.97;;;11.24;100.00
20942;BME280;10630;53.734;10.282;2023-02-03T05:14:03;100838.25;;;11.55;100.00
20942;BME280;10630;53.734;10.282;2023-02-03T05:16:31;100840.34;;;11.84;100.00
20942;BME280;10630;53.734;10.282;2023-02-03T05:18:58;100837.63;;;11.53;100.00
20942;BME280;10630;53.734;10.282;2023-02-03T05:21:26;100831.09;;;11.64;100.00
20942;BME280;10630;53.734;10.282;2023-02-03T05:23:59;100839.44;;;12.09;100.00
20942;BME280;10630;53.734;10.282;2023-02-03T05:26:26;100839.66;;;11.26;100.00
20942;BME280;10630;53.734;10.282;2023-02-03T05:28:53;100830.28;;;11.55;100.00
20942;BME280;10630;53.734;10.282;2023-02-03T05:31:23;100824.66;;;11.90;100.00
20942;BME280;10630;53.734;10.282;2023-02-03T05:33:52;100831.00;;;10.74;100.00
20942;BME280;10630;53.734;10.282;2023-02-03T05:36:19;100836.31;;;11.32;100.00
20942;BME280;10630;53.734;10.282;2023-02-03T05:38:54;100827.53;;;11.80;100.00
20942;BME280;10630;53.734;10.282;2023-02-03T05:41:20;100828.31;;;11.24;100.00
20942;BME280;10630;53.734;10.282;2023-02-03T05:44:26;100825.47;;;11.42;100.00
20942;BME280;10630;53.734;10.282;2023-02-03T05:46:57;100815.59;;;11.67;100.00
20942;BME280;10630;53.734;10.282;2023-02-03T05:49:24;100821.88;;;10.93;100.00
20942;BME280;10630;53.734;10.282;2023-02-03T05:51:51;100807.34;;;11.85;100.00
20942;BME280;10630;53.734;10.282;2023-02-03T05:54:18;100804.03;;;11.83;100.00
20942;BME280;10630;53.734;10.282;2023-02-03T05:56:45;100776.81;;;11.56;100.00
20942;BME280;10630;53.734;10.282;2023-02-03T05:59:12;100786.59;;;11.64;100.00
20942;BME280;10630;53.734;10.282;2023-02-03T06:01:39;100779.25;;;11.75;100.00
20942;BME280;10630;53.734;10.282;2023-02-03T06:04:06;100786.13;;;11.52;100.00
20942;BME280;10630;53.734;10.282;2023-02-03T06:06:53;100772.47;;;11.95;100.00
20942;BME280;10630;53.734;10.282;2023-02-03T06:09:21;100774.34;;;11.38;100.00
20942;BME280;10630;53.734;10.282;2023-02-03T06:11:48;100770.28;;;11.67;100.00
20942;BME280;10630;53.734;10.282;2023-02-03T06:14:15;100759.69;;;12.45;100.00
20942;BME280;10630;53.734;10.282;2023-02-03T06:16:41;100753.81;;;11.95;100.00
20942;BME280;10630;53.734;10.282;2023-02-03T06:19:08;100750.09;;;11.17;100.00
20942;BME280;10630;53.734;10.282;2023-02-03T06:21:39;100737.50;;;12.22;100.00
20942;BME280;10630;53.734;10.282;2023-02-03T06:24:06;100734.28;;;11.63;100.00
20942;BME280;10630;53.734;10.282;2023-02-03T06:26:33;100730.63;;;11.64;100.00
20942;BME280;10630;53.734;10.282;2023-02-03T06:29:00;100733.75;;;12.54;100.00
20942;BME280;10630;53.734;10.282;2023-02-03T06:31:28;100731.31;;;11.58;100.00
20942;BME280;10630;53.734;10.282;2023-02-03T06:33:55;100725.03;;;11.82;100.00
20942;BME280;10630;53.734;10.282;2023-02-03T06:36:22;100721.78;;;12.03;100.00
20942;BME280;10630;53.734;10.282;2023-02-03T06:38:49;100722.53;;;11.49;100.00
20942;BME280;10630;53.734;10.282;2023-02-03T06:41:20;100732.13;;;11.02;100.00
20942;BME280;10630;53.734;10.282;2023-02-03T06:43:53;100737.53;;;11.82;100.00
20942;BME280;10630;53.734;10.282;2023-02-03T06:46:20;100718.56;;;11.37;100.00
20942;BME280;10630;53.734;10.282;2023-02-03T06:48:54;100714.84;;;11.86;100.00
20942;BME280;10630;53.734;10.282;2023-02-03T06:51:21;100700.84;;;12.39;100.00
20942;BME280;10630;53.734;10.282;2023-02-03T06:53:53;100697.44;;;12.07;100.00
20942;BME280;10630;53.734;10.282;2023-02-03T06:56:20;100703.25;;;11.70;100.00
20942;BME280;10630;53.734;10.282;2023-02-03T06:58:50;100696.63;;;11.66;100.00
20942;BME280;10630;53.734;10.282;2023-02-03T07:01:20;100699.59;;;11.71;100.00
20942;BME280;10630;53.734;10.282;2023-02-03T07:03:51;100702.25;;;11.40;100.00
20942;BME280;10630;53.734;10.282;2023-02-03T07:06:18;100698.88;;;11.78;100.00
20942;BME280;10630;53.734;10.282;2023-02-03T07:08:54;100703.31;;;11.94;100.00
20942;BME280;10630;53.734;10.282;2023-02-03T07:11:21;100687.63;;;11.67;100.00
20942;BME280;10630;53.734;10.282;2023-02-03T07:13:57;100680.41;;;11.76;100.00
20942;BME280;10630;53.734;10.282;2023-02-03T07:16:25;100691.03;;;11.84;100.00
20942;BME280;10630;53.734;10.282;2023-02-03T07:18:52;100687.50;;;11.21;100.00
20942;BME280;10630;53.734;10.282;2023-02-03T07:21:23;100665.59;;;11.74;100.00
20942;BME280;10630;53.734;10.282;2023-02-03T07:23:55;100681.44;;;12.07;100.00
20942;BME280;10630;53.734;10.282;2023-02-03T07:26:28;100678.28;;;11.32;100.00
20942;BME280;10630;53.734;10.282;2023-02-03T07:28:57;100690.97;;;11.93;100.00
20942;BME280;10630;53.734;10.282;2023-02-03T07:31:26;100688.69;;;11.50;100.00
20942;BME280;10630;53.734;10.282;2023-02-03T07:33:55;100679.63;;;11.99;100.00
20942;BME280;10630;53.734;10.282;2023-02-03T07:36:24;100694.81;;;11.19;100.00
20942;BME280;10630;53.734;10.282;2023-02-03T07:38:53;100695.97;;;11.24;100.00
20942;BME280;10630;53.734;10.282;2023-02-03T07:41:23;100712.72;;;11.42;100.00
20942;BME280;10630;53.734;10.282;2023-02-03T07:43:55;100710.84;;;11.02;100.00
20942;BME280;10630;53.734;10.282;2023-02-03T07:46:25;100711.63;;;11.19;100.00
20942;BME280;10630;53.734;10.282;2023-02-03T07:48:59;100712.34;;;11.53;100.00
20942;BME280;10630;53.734;10.282;2023-02-03T07:51:29;100740.81;;;10.80;100.00
20942;BME280;10630;53.734;10.282;2023-02-03T07:53:56;100758.94;;;11.09;100.00
20942;BME280;10630;53.734;10.282;2023-02-03T07:56:22;100755.13;;;10.54;100.00
20942;BME280;10630;53.734;10.282;2023-02-03T07:58:51;100777.91;;;9.89;100.00
20942;BME280;10630;53.734;10.282;2023-02-03T08:01:21;100775.09;;;9.90;100.00
20942;BME280;10630;53.734;10.282;2023-02-03T08:03:53;100776.03;;;9.81;100.00
20942;BME280;10630;53.734;10.282;2023-02-03T08:06:30;100762.47;;;9.49;100.00
20942;BME280;10630;53.734;10.282;2023-02-03T08:09:05;100762.88;;;9.37;100.00
20942;BME280;10630;53.734;10.282;2023-02-03T08:11:37;100748.50;;;9.47;100.00
20942;BME280;10630;53.734;10.282;2023-02-03T08:14:08;100767.78;;;9.92;100.00
20942;BME280;10630;53.734;10.282;2023-02-03T08:16:38;100784.03;;;9.46;100.00
20942;BME280;10630;53.734;10.282;2023-02-03T08:19:08;100785.50;;;10.18;100.00
20942;BME280;10630;53.734;10.282;2023-02-03T08:21:41;100786.06;;;10.55;100.00
20942;BME280;10630;53.734;10.282;2023-02-03T08:24:11;100794.41;;;10.76;100.00
20942;BME280;10630;53.734;10.282;2023-02-03T08:26:40;100788.09;;;10.61;100.00
20942;BME280;10630;53.734;10.282;2023-02-03T08:29:10;100792.66;;;10.34;100.00
20942;BME280;10630;53.734;10.282;2023-02-03T08:31:42;100791.09;;;10.91;100.00
20942;BME280;10630;53.734;10.282;2023-02-03T08:34:12;100790.09;;;10.75;100.00
20942;BME280;10630;53.734;10.282;2023-02-03T08:36:46;100791.09;;;10.91;100.00
20942;BME280;10630;53.734;10.282;2023-02-03T08:39:18;100797.88;;;10.60;100.00
20942;BME280;10630;53.734;10.282;2023-02-03T08:41:48;100802.53;;;10.50;100.00
20942;BME280;10630;53.734;10.282;2023-02-03T08:44:18;100787.41;;;11.00;100.00
20942;BME280;10630;53.734;10.282;2023-02-03T08:46:50;100768.34;;;11.45;99.53
20942;BME280;10630;53.734;10.282;2023-02-03T08:49:17;100778.66;;;11.39;100.00
20942;BME280;10630;53.734;10.282;2023-02-03T08:51:47;100790.22;;;10.41;100.00
20942;BME280;10630;53.734;10.282;2023-02-03T08:54:14;100789.09;;;10.76;100.00
20942;BME280;10630;53.734;10.282;2023-02-03T08:56:45;100777.06;;;10.48;100.00
20942;BME280;10630;53.734;10.282;2023-02-03T08:59:17;100780.25;;;10.92;100.00
20942;BME280;10630;53.734;10.282;2023-02-03T09:01:44;100791.44;;;10.12;100.00
20942;BME280;10630;53.734;10.282;2023-02-03T09:04:19;100782.06;;;10.92;100.00
20942;BME280;10630;53.734;10.282;2023-02-03T09:06:50;100789.06;;;10.85;99.88
20942;BME280;10630;53.734;10.282;2023-02-03T09:09:20;100807.38;;;10.63;99.34
20942;BME280;10630;53.734;10.282;2023-02-03T09:11:47;100805.72;;;10.79;99.35
20942;BME280;10630;53.734;10.282;2023-02-03T09:14:16;100801.84;;;10.40;94.62
20942;BME280;10630;53.734;10.282;2023-02-03T09:16:49;100793.72;;;10.58;94.74
20942;BME280;10630;53.734;10.282;2023-02-03T09:19:20;100819.84;;;10.54;93.98
20942;BME280;10630;53.734;10.282;2023-02-03T09:21:53;100812.22;;;10.92;90.64
20942;BME280;10630;53.734;10.282;2023-02-03T09:24:23;100811.38;;;10.59;89.01
20942;BME280;10630;53.734;10.282;2023-02-03T09:26:54;100822.84;;;10.76;91.02
20942;BME280;10630;53.734;10.282;2023-02-03T09:29:30;100831.00;;;10.58;88.78
20942;BME280;10630;53.734;10.282;2023-02-03T09:32:02;100836.88;;;10.27;90.12
20942;BME280;10630;53.734;10.282;2023-02-03T09:34:37;100844.19;;;10.33;90.52
20942;BME280;10630;53.734;10.282;2023-02-03T09:37:17;100834.84;;;10.12;91.37
20942;BME280;10630;53.734;10.282;2023-02-03T09:39:51;100845.56;;;9.94;91.02
20942;BME280;10630;53.734;10.282;2023-02-03T09:42:41;100860.69;;;10.37;90.12
20942;BME280;10630;53.734;10.282;2023-02-03T09:45:17;100870.91;;;9.80;91.64
20942;BME280;10630;53.734;10.282;2023-02-03T09:47:51;100875.94;;;10.77;91.00
20942;BME280;10630;53.734;10.282;2023-02-03T09:50:31;100883.72;;;10.63;89.77
20942;BME280;10630;53.734;10.282;2023-02-03T09:53:03;100873.56;;;10.58;90.09
20942;BME280;10630;53.734;10.282;2023-02-03T09:55:38;100880.47;;;10.00;90.66
20942;BME280;10630;53.734;10.282;2023-02-03T09:58:13;100879.41;;;10.70;89.09
20942;BME280;10630;53.734;10.282;2023-02-03T10:00:59;100875.22;;;10.51;87.26
20942;BME280;10630;53.734;10.282;2023-02-03T10:06:11;100883.06;;;10.60;85.86
20942;BME280;10630;53.734;10.282;2023-02-03T10:18:56;100897.66;;;10.13;84.07
20942;BME280;10630;53.734;10.282;2023-02-03T10:23:56;100906.72;;;10.29;85.19
20942;BME280;10630;53.734;10.282;2023-02-03T10:26:30;100918.81;;;10.58;83.14
20942;BME280;10630;53.734;10.282;2023-02-03T10:29:02;100930.28;;;10.24;82.72
20942;BME280;10630;53.734;10.282;2023-02-03T10:31:39;100936.28;;;9.91;84.64
20942;BME280;10630;53.734;10.282;2023-02-03T10:34:14;100922.84;;;10.79;82.30
20942;BME280;10630;53.734;10.282;2023-02-03T10:39:46;100929.59;;;10.13;81.24
20942;BME280;10630;53.734;10.282;2023-02-03T10:42:26;100945.56;;;9.87;82.19
20942;BME280;10630;53.734;10.282;2023-02-03T10:45:17;100935.00;;;10.30;83.53
20942;BME280;10630;53.734;10.282;2023-02-03T10:47:52;100929.78;;;10.55;81.58
20942;BME280;10630;53.734;10.282;2023-02-03T10:50:33;100947.22;;;10.41;82.41
20942;BME280;10630;53.734;10.282;2023-02-03T10:53:19;100943.31;;;10.35;84.26
20942;BME280;10630;53.734;10.282;2023-02-03T10:56:08;100938.53;;;9.78;82.65
20942;BME280;10630;53.734;10.282;2023-02-03T10:58:44;100953.91;;;10.27;84.19
20942;BME280;10630;53.734;10.282;2023-02-03T11:01:16;100947.09;;;10.24;81.03
20942;BME280;10630;53.734;10.282;2023-02-03T11:03:52;100960.75;;;10.29;81.68
20942;BME280;10630;53.734;10.282;2023-02-03T11:06:23;100967.03;;;10.55;77.70
20942;BME280;10630;53.734;10.282;2023-02-03T11:08:58;100964.75;;;9.99;79.81
20942;BME280;10630;53.734;10.282;2023-02-03T11:11:31;100968.44;;;10.75;78.84
20942;BME280;10630;53.734;10.282;2023-02-03T11:16:40;100959.72;;;9.96;77.70
20942;BME280;10630;53.734;10.282;2023-02-03T11:19:20;100978.75;;;10.09;79.17
20942;BME280;10630;53.734;10.282;2023-02-03T11:21:52;100963.94;;;10.07;79.95
20942;BME280;10630;53.734;10.282;2023-02-03T11:24:26;100963.25;;;10.57;78.88
20942;BME280;10630;53.734;10.282;2023-02-03T11:29:36;100989.09;;;10.12;78.57
20942;BME280;10630;53.734;10.282;2023-02-03T11:34:56;100984.00;;;10.54;78.73
20942;BME280;10630;53.734;10.282;2023-02-03T11:42:44;100982.66;;;10.50;75.98
20942;BME280;10630;53.734;10.282;2023-02-03T11:45:23;100972.63;;;10.86;75.23
20942;BME280;10630;53.734;10.282;2023-02-03T11:50:27;100970.09;;;10.68;76.13
20942;BME280;10630;53.734;10.282;2023-02-03T12:04:00;100987.13;;;10.84;74.07
20942;BME280;10630;53.734;10.282;2023-02-03T12:09:18;101004.31;;;10.63;73.03
20942;BME280;10630;53.734;10.282;2023-02-03T12:17:33;101020.00;;;10.66;73.22
20942;BME280;10630;53.734;10.282;2023-02-03T12:28:02;100998.16;;;10.54;73.91
20942;BME280;10630;53.734;10.282;2023-02-03T12:30:40;101003.78;;;11.02;71.40
20942;BME280;10630;53.734;10.282;2023-02-03T12:33:22;101007.91;;;10.19;71.21
20942;BME280;10630;53.734;10.282;2023-02-03T12:36:10;101026.56;;;10.54;72.99
20942;BME280;10630;53.734;10.282;2023-02-03T12:38:45;101020.03;;;10.74;72.06
20942;BME280;10630;53.734;10.282;2023-02-03T12:41:39;101024.50;;;10.39;72.26
20942;BME280;10630;53.734;10.282;2023-02-03T12:44:16;101013.94;;;10.29;73.39
20942;BME280;10630;53.734;10.282;2023-02-03T12:46:59;101017.94;;;10.52;72.77
20942;BME280;10630;53.734;10.282;2023-02-03T12:49:52;101018.44;;;10.29;72.98
20942;BME280;10630;53.734;10.282;2023-02-03T12:52:26;101015.22;;;10.43;71.80
20942;BME280;10630;53.734;10.282;2023-02-03T12:55:13;101015.59;;;10.91;71.79
20942;BME280;10630;53.734;10.282;2023-02-03T12:58:04;101014.97;;;10.63;73.01
20942;BME280;10630;53.734;10.282;2023-02-03T13:00:44;101021.31;;;10.09;74.81
20942;BME280;10630;53.734;10.282;2023-02-03T13:06:01;101020.56;;;10.43;74.01
20942;BME280;10630;53.734;10.282;2023-02-03T13:08:38;101042.22;;;10.04;73.61
20942;BME280;10630;53.734;10.282;2023-02-03T13:13:55;101032.63;;;10.64;74.60
20942;BME280;10630;53.734;10.282;2023-02-03T13:16:54;101047.03;;;10.27;74.03
20942;BME280;10630;53.734;10.282;2023-02-03T13:19:32;101045.75;;;10.66;73.15
20942;BME280;10630;53.734;10.282;2023-02-03T13:22:15;101060.78;;;10.22;76.82
20942;BME280;10630;53.734;10.282;2023-02-03T13:24:49;101043.78;;;10.68;74.37
20942;BME280;10630;53.734;10.282;2023-02-03T13:29:59;101052.09;;;10.38;73.16
20942;BME280;10630;53.734;10.282;2023-02-03T13:32:46;101054.84;;;10.02;74.96
20942;BME280;10630;53.734;10.282;2023-02-03T13:35:25;101054.47;;;10.41;74.14
20942;BME280;10630;53.734;10.282;2023-02-03T13:38:06;101061.97;;;10.81;72.96
20942;BME280;10630;53.734;10.282;2023-02-03T13:40:41;101067.34;;;10.54;71.45
20942;BME280;10630;53.734;10.282;2023-02-03T13:43:38;101074.13;;;10.04;73.71
20942;BME280;10630;53.734;10.282;2023-02-03T13:46:06;101084.69;;;10.14;72.74
20942;BME280;10630;53.734;10.282;2023-02-03T13:48:49;101080.41;;;10.21;73.43
20942;BME280;10630;53.734;10.282;2023-02-03T13:51:21;101070.63;;;10.22;73.82
20942;BME280;10630;53.734;10.282;2023-02-03T13:54:07;101081.75;;;9.99;73.51
20942;BME280;10630;53.734;10.282;2023-02-03T13:57:05;101077.47;;;10.51;71.93
20942;BME280;10630;53.734;10.282;2023-02-03T13:59:42;101071.94;;;10.79;71.96
20942;BME280;10630;53.734;10.282;2023-02-03T14:02:28;101066.22;;;10.12;73.12
20942;BME280;10630;53.734;10.282;2023-02-03T14:04:59;101075.75;;;10.41;71.60
20942;BME280;10630;53.734;10.282;2023-02-03T14:07:31;101089.91;;;10.50;72.58
20942;BME280;10630;53.734;10.282;2023-02-03T14:18:29;101105.00;;;9.97;74.35
20942;BME280;10630;53.734;10.282;2023-02-03T14:20:43;101090.22;;;10.39;74.70
20942;BME280;10630;53.734;10.282;2023-02-03T14:23:23;101090.28;;;10.29;74.74
20942;BME280;10630;53.734;10.282;2023-02-03T14:25:55;101088.25;;;10.23;75.02
20942;BME280;10630;53.734;10.282;2023-02-03T14:28:36;101099.34;;;10.00;76.91
20942;BME280;10630;53.734;10.282;2023-02-03T14:31:09;101114.22;;;10.29;74.78
20942;BME280;10630;53.734;10.282;2023-02-03T14:42:06;101104.16;;;9.60;81.30
20942;BME280;10630;53.734;10.282;2023-02-03T14:47:27;101105.22;;;10.04;79.57
20942;BME280;10630;53.734;10.282;2023-02-03T14:52:58;101109.75;;;10.11;81.15
20942;BME280;10630;53.734;10.282;2023-02-03T14:55:35;101120.16;;;10.23;78.67
20942;BME280;10630;53.734;10.282;2023-02-03T15:00:43;101125.13;;;10.00;78.87
20942;BME280;10630;53.734;10.282;2023-02-03T15:03:20;101124.91;;;10.55;77.18
20942;BME280;10630;53.734;10.282;2023-02-03T15:05:52;101127.34;;;9.68;79.75